createdAt,value
2023-04-15T00:00:23.671Z,35.10
2023-04-15T00:01:23.670Z,35.00
2023-04-15T00:02:23.829Z,49.40
2023-04-15T00:03:24.777Z,35.90
2023-04-15T00:04:23.641Z,33.00
2023-04-15T00:05:23.581Z,49.70
2023-04-15T00:06:23.568Z,41.60
2023-04-15T00:07:23.548Z,44.00
2023-04-15T00:08:24.506Z,46.40
2023-04-15T00:09:23.540Z,41.70
2023-04-15T00:10:23.542Z,41.40
2023-04-15T00:11:23.494Z,42.40
2023-04-15T00:12:23.520Z,41.70
2023-04-15T00:13:24.448Z,39.70
2023-04-15T00:14:23.469Z,40.40
2023-04-15T00:15:23.507Z,37.80
2023-04-15T00:16:23.530Z,36.00
2023-04-15T00:17:23.500Z,37.00
2023-04-15T00:18:23.432Z,43.20
2023-04-15T00:19:24.383Z,43.70
2023-04-15T00:20:23.404Z,43.70
2023-04-15T00:21:23.404Z,36.60
2023-04-15T00:22:23.376Z,35.50
2023-04-15T00:23:23.376Z,36.00
2023-04-15T00:24:24.308Z,37.20
2023-04-15T00:25:23.334Z,31.30
2023-04-15T00:26:23.320Z,42.60
2023-04-15T00:27:23.322Z,44.30
2023-04-15T00:28:23.300Z,45.00
2023-04-15T00:29:23.295Z,46.00
2023-04-15T00:30:24.222Z,42.60
2023-04-15T00:31:23.486Z,41.60
2023-04-15T00:32:23.354Z,41.40
2023-04-15T00:33:23.238Z,47.20
2023-04-15T00:34:23.262Z,42.30
2023-04-15T00:35:23.198Z,46.40
2023-04-15T00:36:24.149Z,38.80
2023-04-15T00:37:23.177Z,41.60
2023-04-15T00:38:23.185Z,44.20
2023-04-15T00:39:23.193Z,41.40
2023-04-15T00:40:23.174Z,43.00
2023-04-15T00:41:23.173Z,40.10
2023-04-15T00:42:24.068Z,44.10
2023-04-15T00:43:23.128Z,40.30
2023-04-15T00:44:23.126Z,39.10
2023-04-15T00:45:23.100Z,44.80
2023-04-15T00:46:23.101Z,42.90
2023-04-15T00:47:24.062Z,40.10
2023-04-15T00:48:23.046Z,39.60
2023-04-15T00:49:23.031Z,42.90
2023-04-15T00:50:23.147Z,39.80
2023-04-15T00:51:23.018Z,45.10
2023-04-15T00:52:22.991Z,51.20
2023-04-15T00:53:23.923Z,40.70
2023-04-15T00:54:22.966Z,45.80
2023-04-15T00:55:23.101Z,43.20
2023-04-15T00:56:22.979Z,50.40
2023-04-15T00:57:22.916Z,41.00
2023-04-15T00:58:22.907Z,46.80
2023-04-15T00:59:23.834Z,51.00
2023-04-15T01:00:22.893Z,46.10
2023-04-15T01:01:22.939Z,46.30
2023-04-15T01:02:22.978Z,47.10
2023-04-15T01:03:23.110Z,43.50
2023-04-15T01:04:23.825Z,45.30
2023-04-15T01:05:22.834Z,43.80
2023-04-15T01:06:22.825Z,50.90
2023-04-15T01:07:22.828Z,54.40
2023-04-15T01:08:22.770Z,44.00
2023-04-15T01:09:22.772Z,50.40
2023-04-15T01:10:23.674Z,49.40
2023-04-15T01:11:22.757Z,47.50
2023-04-15T01:12:22.736Z,40.20
2023-04-15T01:13:22.707Z,44.90
2023-04-15T01:14:22.695Z,44.30
2023-04-15T01:15:23.644Z,41.10
2023-04-15T01:16:22.793Z,43.00
2023-04-15T01:17:22.732Z,45.30
2023-04-15T01:18:22.663Z,46.80
2023-04-15T01:19:22.650Z,49.90
2023-04-15T01:20:23.552Z,49.50
2023-04-15T01:21:22.647Z,43.10
2023-04-15T01:22:22.606Z,51.20
2023-04-15T01:23:22.587Z,48.50
2023-04-15T01:24:22.563Z,59.00
2023-04-15T01:25:22.573Z,42.40
2023-04-15T01:26:23.477Z,47.10
2023-04-15T01:27:22.548Z,50.10
2023-04-15T01:28:22.558Z,48.90
2023-04-15T01:29:22.525Z,51.40
2023-04-15T01:30:22.511Z,53.10
2023-04-15T01:31:23.451Z,52.00
2023-04-15T01:32:22.516Z,56.30
2023-04-15T01:33:22.522Z,54.60
2023-04-15T01:34:22.488Z,51.60
2023-04-15T01:35:22.426Z,59.60
2023-04-15T01:36:23.379Z,55.20
2023-04-15T01:37:22.408Z,55.10
2023-04-15T01:38:22.412Z,56.20
2023-04-15T01:39:22.390Z,49.10
2023-04-15T01:40:22.384Z,57.60
2023-04-15T01:41:23.321Z,53.90
2023-04-15T01:42:22.373Z,51.30
2023-04-15T01:43:22.369Z,53.60
2023-04-15T01:44:22.320Z,55.10
2023-04-15T01:45:22.304Z,48.10
2023-04-15T01:46:22.337Z,51.20
2023-04-15T01:47:23.257Z,58.00
2023-04-15T01:48:22.279Z,51.20
2023-04-15T01:49:22.276Z,57.10
2023-04-15T01:50:22.256Z,50.20
2023-04-15T01:51:22.252Z,59.50
2023-04-15T01:52:23.195Z,54.50
2023-04-15T01:53:22.216Z,55.00
2023-04-15T01:54:22.189Z,51.70
2023-04-15T01:55:22.178Z,64.10
2023-04-15T01:56:22.184Z,51.60
2023-04-15T01:57:22.184Z,45.20
2023-04-15T01:58:23.098Z,52.80
2023-04-15T01:59:22.158Z,54.90
2023-04-15T02:00:22.148Z,55.50
2023-04-15T02:01:22.203Z,61.00
2023-04-15T02:02:22.166Z,57.90
2023-04-15T02:03:22.214Z,50.70
2023-04-15T02:04:23.031Z,50.10
2023-04-15T02:05:22.075Z,46.80
2023-04-15T02:06:22.046Z,57.20
2023-04-15T02:07:22.058Z,53.20
2023-04-15T02:08:22.054Z,51.50
2023-04-15T02:09:22.025Z,64.00
2023-04-15T02:10:22.936Z,56.40
2023-04-15T02:11:21.989Z,69.00
2023-04-15T02:12:21.994Z,60.20
2023-04-15T02:13:21.955Z,57.40
2023-04-15T02:14:21.948Z,58.40
2023-04-15T02:15:21.943Z,58.60
2023-04-15T02:16:22.886Z,57.00
2023-04-15T02:17:21.986Z,59.10
2023-04-15T02:18:21.913Z,54.40
2023-04-15T02:19:21.886Z,52.70
2023-04-15T02:20:21.880Z,61.70
2023-04-15T02:21:21.887Z,59.50
2023-04-15T02:22:22.788Z,58.90
2023-04-15T02:23:21.859Z,59.70
2023-04-15T02:24:21.838Z,55.70
2023-04-15T02:25:21.842Z,60.90
2023-04-15T02:26:21.795Z,64.30
2023-04-15T02:27:21.785Z,56.90
2023-04-15T02:28:22.710Z,57.60
2023-04-15T02:29:21.753Z,50.70
2023-04-15T02:30:21.743Z,56.30
2023-04-15T02:31:21.803Z,55.90
2023-04-15T02:32:21.761Z,58.00
2023-04-15T02:33:21.789Z,54.40
2023-04-15T02:34:22.628Z,64.90
2023-04-15T02:35:21.659Z,54.70
2023-04-15T02:36:21.682Z,60.80
2023-04-15T02:37:21.655Z,56.80
2023-04-15T02:38:21.692Z,49.80
2023-04-15T02:39:21.624Z,52.80
2023-04-15T02:40:22.555Z,52.30
2023-04-15T02:41:21.603Z,59.10
2023-04-15T02:42:21.626Z,62.40
2023-04-15T02:43:21.611Z,64.50
2023-04-15T02:44:21.573Z,61.20
2023-04-15T02:45:21.558Z,65.20
2023-04-15T02:46:22.516Z,69.00
2023-04-15T02:47:21.537Z,61.20
2023-04-15T02:48:21.526Z,52.40
2023-04-15T02:49:21.529Z,55.80
2023-04-15T02:50:21.492Z,58.50
2023-04-15T02:51:21.490Z,66.00
2023-04-15T02:52:22.396Z,52.80
2023-04-15T02:53:21.464Z,54.80
2023-04-15T02:54:21.440Z,51.00
2023-04-15T02:55:21.432Z,55.20
2023-04-15T02:56:21.412Z,57.30
2023-04-15T02:57:22.366Z,63.00
2023-04-15T02:58:21.392Z,66.20
2023-04-15T02:59:21.382Z,63.70
2023-04-15T03:00:21.370Z,60.00
2023-04-15T03:01:21.376Z,59.30
2023-04-15T03:02:21.433Z,62.80
2023-04-15T03:03:22.366Z,53.40
2023-04-15T03:04:21.347Z,55.60
2023-04-15T03:05:21.319Z,53.20
2023-04-15T03:06:21.293Z,52.30
2023-04-15T03:07:21.255Z,50.60
2023-04-15T03:08:21.250Z,57.60
2023-04-15T03:09:22.186Z,59.60
2023-04-15T03:10:21.238Z,57.00
2023-04-15T03:11:21.229Z,53.40
2023-04-15T03:12:21.235Z,62.60
2023-04-15T03:13:21.187Z,50.60
2023-04-15T03:14:21.223Z,50.00
2023-04-15T03:15:22.109Z,48.30
2023-04-15T03:16:21.184Z,55.20
2023-04-15T03:17:21.190Z,59.90
2023-04-15T03:18:21.155Z,59.70
2023-04-15T03:19:21.124Z,60.00
2023-04-15T03:20:21.140Z,60.60
2023-04-15T03:21:22.046Z,53.30
2023-04-15T03:22:21.083Z,56.40
2023-04-15T03:23:21.065Z,60.80
2023-04-15T03:24:21.147Z,51.20
2023-04-15T03:25:21.098Z,56.70
2023-04-15T03:26:21.944Z,51.60
2023-04-15T03:27:21.015Z,56.20
2023-04-15T03:28:21.022Z,48.90
2023-04-15T03:29:20.980Z,56.70
2023-04-15T03:30:20.991Z,55.80
2023-04-15T03:31:21.888Z,53.80
2023-04-15T03:32:20.996Z,52.90
2023-04-15T03:33:20.961Z,52.90
2023-04-15T03:34:20.940Z,50.10
2023-04-15T03:35:20.943Z,50.00
2023-04-15T03:36:20.938Z,59.00
2023-04-15T03:37:21.805Z,55.30
2023-04-15T03:38:20.883Z,47.60
2023-04-15T03:39:20.858Z,51.60
2023-04-15T03:40:20.878Z,54.10
2023-04-15T03:41:20.887Z,49.40
2023-04-15T03:42:20.818Z,51.40
2023-04-15T03:43:21.748Z,52.80
2023-04-15T03:44:20.793Z,59.00
2023-04-15T03:45:20.788Z,50.00
2023-04-15T03:46:20.832Z,54.30
2023-04-15T03:47:20.800Z,50.70
2023-04-15T03:48:21.727Z,51.40
2023-04-15T03:49:20.724Z,50.50
2023-04-15T03:50:20.723Z,52.60
2023-04-15T03:51:20.740Z,52.10
2023-04-15T03:52:20.710Z,55.90
2023-04-15T03:53:20.662Z,48.90
2023-04-15T03:54:21.616Z,49.40
2023-04-15T03:55:20.668Z,47.20
2023-04-15T03:56:20.650Z,56.70
2023-04-15T03:57:20.631Z,46.70
2023-04-15T03:58:20.621Z,47.90
2023-04-15T03:59:21.552Z,41.80
2023-04-15T04:00:20.605Z,49.40
2023-04-15T04:01:20.635Z,47.80
2023-04-15T04:02:20.654Z,50.60
2023-04-15T04:03:20.646Z,48.80
2023-04-15T04:04:20.656Z,44.20
2023-04-15T04:05:21.469Z,44.50
2023-04-15T04:06:20.489Z,42.30
2023-04-15T04:07:20.514Z,50.80
2023-04-15T04:08:20.501Z,46.10
2023-04-15T04:09:20.476Z,52.20
2023-04-15T04:10:20.474Z,45.80
2023-04-15T04:11:21.375Z,41.70
2023-04-15T04:12:20.439Z,47.90
2023-04-15T04:13:20.457Z,44.50
2023-04-15T04:14:20.427Z,44.70
2023-04-15T04:15:20.403Z,47.30
2023-04-15T04:16:21.450Z,48.50
2023-04-15T04:17:20.376Z,47.80
2023-04-15T04:18:20.354Z,45.70
2023-04-15T04:19:20.348Z,47.00
2023-04-15T04:20:20.349Z,41.30
2023-04-15T04:21:21.278Z,52.10
2023-04-15T04:22:20.340Z,43.70
2023-04-15T04:23:20.308Z,43.80
2023-04-15T04:24:20.313Z,46.00
2023-04-15T04:25:20.278Z,47.00
2023-04-15T04:26:20.273Z,38.50
2023-04-15T04:27:21.179Z,45.70
2023-04-15T04:28:20.236Z,45.90
2023-04-15T04:29:20.242Z,45.60
2023-04-15T04:30:20.233Z,40.90
2023-04-15T04:31:20.273Z,46.00
2023-04-15T04:32:21.158Z,41.80
2023-04-15T04:33:20.197Z,43.10
2023-04-15T04:34:20.161Z,44.10
2023-04-15T04:35:20.152Z,38.50
2023-04-15T04:36:20.118Z,40.10
2023-04-15T04:37:20.149Z,40.30
2023-04-15T04:38:21.023Z,42.50
2023-04-15T04:39:20.086Z,40.10
2023-04-15T04:40:20.067Z,37.60
2023-04-15T04:41:20.061Z,37.10
2023-04-15T04:42:20.061Z,36.30
2023-04-15T04:43:20.973Z,43.10
2023-04-15T04:44:20.038Z,40.00
2023-04-15T04:45:20.033Z,38.70
2023-04-15T04:46:20.031Z,37.80
2023-04-15T04:47:19.997Z,40.30
2023-04-15T04:48:20.905Z,42.00
2023-04-15T04:49:19.957Z,37.30
2023-04-15T04:50:19.960Z,37.60
2023-04-15T04:51:19.937Z,38.90
2023-04-15T04:52:19.934Z,38.00
2023-04-15T04:53:20.873Z,40.30
2023-04-15T04:54:19.906Z,35.00
2023-04-15T04:55:19.873Z,35.00
2023-04-15T04:56:19.873Z,33.60
2023-04-15T04:57:19.845Z,36.40
2023-04-15T04:58:19.849Z,31.20
2023-04-15T04:59:20.768Z,37.00
2023-04-15T05:00:19.805Z,38.10
2023-04-15T05:01:19.835Z,32.90
2023-04-15T05:02:19.945Z,33.00
2023-04-15T05:03:20.011Z,32.70
2023-04-15T05:04:20.676Z,36.80
2023-04-15T05:05:19.782Z,37.20
2023-04-15T05:06:19.782Z,33.90
2023-04-15T05:07:19.736Z,36.60
2023-04-15T05:08:19.744Z,33.00
2023-04-15T05:09:19.724Z,28.80
2023-04-15T05:10:20.603Z,34.80
2023-04-15T05:11:19.690Z,31.30
2023-04-15T05:12:19.719Z,34.80
2023-04-15T05:13:19.665Z,29.70
2023-04-15T05:14:20.509Z,33.80
2023-04-15T05:15:19.618Z,32.70
2023-04-15T05:16:20.639Z,36.40
2023-04-15T05:17:19.624Z,32.40
2023-04-15T05:18:19.588Z,32.40
2023-04-15T05:19:19.593Z,31.70
2023-04-15T05:20:19.576Z,32.20
2023-04-15T05:21:19.603Z,30.70
2023-04-15T05:22:20.517Z,31.10
2023-04-15T05:23:19.528Z,32.10
2023-04-15T05:24:19.500Z,27.80
2023-04-15T05:25:19.533Z,31.30
2023-04-15T05:26:19.496Z,31.20
2023-04-15T05:27:20.406Z,29.60
2023-04-15T05:28:19.474Z,28.20
2023-04-15T05:29:19.460Z,29.70
2023-04-15T05:30:19.443Z,30.10
2023-04-15T05:31:19.529Z,32.40
2023-04-15T05:32:19.451Z,29.90
2023-04-15T05:33:20.358Z,31.60
2023-04-15T05:34:19.412Z,29.10
2023-04-15T05:35:19.375Z,31.10
2023-04-15T05:36:19.407Z,28.40
2023-04-15T05:37:19.355Z,30.40
2023-04-15T05:38:20.260Z,28.00
2023-04-15T05:39:19.351Z,26.40
2023-04-15T05:40:19.350Z,27.20
2023-04-15T05:41:19.958Z,28.10
2023-04-15T05:42:19.277Z,28.50
2023-04-15T05:43:19.278Z,27.40
2023-04-15T05:44:20.205Z,27.30
2023-04-15T05:45:19.270Z,24.30
2023-04-15T05:46:19.248Z,28.20
2023-04-15T05:47:19.249Z,26.80
2023-04-15T05:48:19.226Z,27.10
2023-04-15T05:49:19.214Z,24.40
2023-04-15T05:50:20.122Z,24.70
2023-04-15T05:51:19.175Z,23.60
2023-04-15T05:52:19.175Z,28.80
2023-04-15T05:53:19.154Z,29.10
2023-04-15T05:54:20.302Z,27.50
2023-04-15T05:55:20.280Z,25.80
2023-04-15T05:56:19.156Z,25.50
2023-04-15T05:57:19.150Z,23.10
2023-04-15T05:58:19.069Z,26.20
2023-04-15T05:59:19.068Z,21.00
2023-04-15T06:00:19.980Z,21.60
2023-04-15T06:01:19.052Z,23.40
2023-04-15T06:02:19.175Z,25.10
2023-04-15T06:03:19.073Z,20.60
2023-04-15T06:04:19.186Z,24.40
2023-04-15T06:05:19.046Z,24.40
2023-04-15T06:06:19.963Z,20.60
2023-04-15T06:07:18.953Z,24.20
2023-04-15T06:08:18.995Z,25.10
2023-04-15T06:09:18.979Z,19.70
2023-04-15T06:10:18.938Z,19.70
2023-04-15T06:11:18.958Z,19.80
2023-04-15T06:12:19.838Z,23.90
2023-04-15T06:13:18.908Z,19.10
2023-04-15T06:14:18.896Z,23.20
2023-04-15T06:15:18.893Z,19.30
2023-04-15T06:16:18.903Z,20.60
2023-04-15T06:17:18.899Z,21.20
2023-04-15T06:18:19.761Z,23.00
2023-04-15T06:19:19.144Z,18.90
2023-04-15T06:20:18.827Z,19.50
2023-04-15T06:21:18.791Z,20.10
2023-04-15T06:22:18.782Z,41.60
2023-04-15T06:23:18.773Z,28.10
2023-04-15T06:24:19.716Z,18.30
2023-04-15T06:25:18.756Z,17.40
2023-04-15T06:26:18.728Z,20.70
2023-04-15T06:27:18.720Z,21.60
2023-04-15T06:28:18.715Z,18.10
2023-04-15T06:29:19.647Z,18.20
2023-04-15T06:30:18.723Z,18.30
2023-04-15T06:31:18.716Z,18.90
2023-04-15T06:32:18.647Z,18.20
2023-04-15T06:33:18.650Z,18.10
2023-04-15T06:34:18.627Z,17.30
2023-04-15T06:35:19.554Z,17.50
2023-04-15T06:36:18.613Z,15.80
2023-04-15T06:37:18.608Z,18.40
2023-04-15T06:38:18.574Z,18.90
2023-04-15T06:39:18.554Z,19.20
2023-04-15T06:40:18.603Z,19.20
2023-04-15T06:41:19.493Z,23.20
2023-04-15T06:42:18.543Z,26.60
2023-04-15T06:43:18.543Z,19.70
2023-04-15T06:44:18.496Z,25.90
2023-04-15T06:45:18.490Z,18.50
2023-04-15T06:46:19.583Z,17.30
2023-04-15T06:47:18.499Z,15.90
2023-04-15T06:48:18.451Z,18.90
2023-04-15T06:49:18.457Z,16.70
2023-04-15T06:50:18.461Z,17.90
2023-04-15T06:51:19.350Z,16.50
2023-04-15T06:52:18.410Z,21.40
2023-04-15T06:53:18.413Z,15.70
2023-04-15T06:54:18.383Z,14.60
2023-04-15T06:55:18.355Z,14.60
2023-04-15T06:56:18.352Z,16.50
2023-04-15T06:57:19.295Z,16.00
2023-04-15T06:58:18.348Z,18.00
2023-04-15T06:59:18.323Z,14.70
2023-04-15T07:00:18.288Z,15.20
2023-04-15T07:01:18.353Z,14.90
2023-04-15T07:02:19.325Z,14.70
2023-04-15T07:03:18.301Z,15.50
2023-04-15T07:04:18.273Z,15.40
2023-04-15T07:05:18.238Z,13.40
2023-04-15T07:06:18.235Z,13.10
2023-04-15T07:07:19.149Z,13.80
2023-04-15T07:08:18.201Z,14.70
2023-04-15T07:09:18.192Z,13.70
2023-04-15T07:10:18.182Z,14.20
2023-04-15T07:11:18.144Z,13.00
2023-04-15T07:12:18.162Z,13.20
2023-04-15T07:13:19.074Z,15.40
2023-04-15T07:14:18.167Z,12.50
2023-04-15T07:15:18.114Z,13.00
2023-04-15T07:16:18.121Z,12.50
2023-04-15T07:17:18.110Z,13.40
2023-04-15T07:18:19.018Z,13.10
2023-04-15T07:19:18.061Z,12.00
2023-04-15T07:20:18.047Z,11.10
2023-04-15T07:21:18.049Z,14.00
2023-04-15T07:22:18.040Z,13.10
2023-04-15T07:23:18.013Z,11.90
2023-04-15T07:24:18.937Z,13.80
2023-04-15T07:25:18.364Z,13.00
2023-04-15T07:26:17.950Z,15.90
2023-04-15T07:27:17.980Z,11.90
2023-04-15T07:28:17.927Z,12.90
2023-04-15T07:29:18.868Z,11.00
2023-04-15T07:30:17.930Z,13.50
2023-04-15T07:31:17.974Z,12.90
2023-04-15T07:32:17.873Z,12.50
2023-04-15T07:33:17.898Z,11.40
2023-04-15T07:34:18.803Z,12.70
2023-04-15T07:35:17.848Z,13.40
2023-04-15T07:36:17.841Z,13.90
2023-04-15T07:37:17.817Z,18.60
2023-04-15T07:38:17.810Z,13.70
2023-04-15T07:39:18.703Z,12.00
2023-04-15T07:40:17.780Z,11.30
2023-04-15T07:41:17.783Z,11.50
2023-04-15T07:42:17.877Z,11.80
2023-04-15T07:43:17.731Z,14.20
2023-04-15T07:44:18.646Z,14.20
2023-04-15T07:45:17.774Z,11.80
2023-04-15T07:46:17.761Z,13.20
2023-04-15T07:47:17.762Z,14.90
2023-04-15T07:48:17.683Z,12.60
2023-04-15T07:49:17.692Z,14.40
2023-04-15T07:50:18.585Z,12.20
2023-04-15T07:51:17.674Z,11.40
2023-04-15T07:52:17.622Z,12.50
2023-04-15T07:53:17.614Z,12.70
2023-04-15T07:54:17.635Z,11.40
2023-04-15T07:55:18.517Z,13.50
2023-04-15T07:56:17.603Z,14.10
2023-04-15T07:57:17.581Z,16.10
2023-04-15T07:58:17.577Z,12.40
2023-04-15T07:59:17.547Z,13.70
2023-04-15T08:00:18.428Z,12.50
2023-04-15T08:01:17.516Z,14.70
2023-04-15T08:02:17.620Z,12.60
2023-04-15T08:03:17.559Z,14.40
2023-04-15T08:04:17.582Z,13.60
2023-04-15T08:05:17.509Z,12.70
2023-04-15T08:06:18.368Z,15.40
2023-04-15T08:07:17.416Z,14.70
2023-04-15T08:08:17.480Z,13.50
2023-04-15T08:09:17.408Z,13.20
2023-04-15T08:10:17.384Z,12.60
2023-04-15T08:11:17.379Z,14.20
2023-04-15T08:12:18.291Z,12.30
2023-04-15T08:13:17.380Z,24.30
2023-04-15T08:14:17.353Z,13.20
2023-04-15T08:15:17.376Z,13.30
2023-04-15T08:16:17.336Z,14.40
2023-04-15T08:17:17.325Z,13.70
2023-04-15T08:18:18.223Z,13.40
2023-04-15T08:19:17.280Z,13.30
2023-04-15T08:20:17.234Z,12.10
2023-04-15T08:21:17.237Z,13.60
2023-04-15T08:22:18.186Z,14.00
2023-04-15T08:23:17.261Z,12.90
2023-04-15T08:24:18.140Z,13.40
2023-04-15T08:25:17.183Z,12.60
2023-04-15T08:26:17.168Z,14.90
2023-04-15T08:27:17.188Z,13.70
2023-04-15T08:28:17.163Z,13.10
2023-04-15T08:29:18.117Z,15.60
2023-04-15T08:30:17.125Z,13.60
2023-04-15T08:31:17.122Z,15.30
2023-04-15T08:32:17.109Z,16.00
2023-04-15T08:33:17.073Z,13.40
2023-04-15T08:34:17.058Z,14.60
2023-04-15T08:35:18.000Z,16.50
2023-04-15T08:36:17.056Z,14.70
2023-04-15T08:37:17.030Z,14.70
2023-04-15T08:38:17.028Z,17.00
2023-04-15T08:39:17.021Z,14.90
2023-04-15T08:40:17.015Z,15.30
2023-04-15T08:41:17.918Z,15.30
2023-04-15T08:42:16.963Z,15.60
2023-04-15T08:43:16.961Z,16.30
2023-04-15T08:44:16.945Z,15.00
2023-04-15T08:45:16.915Z,14.40
2023-04-15T08:46:16.934Z,15.50
2023-04-15T08:47:17.832Z,16.30
2023-04-15T08:48:16.921Z,14.90
2023-04-15T08:49:16.951Z,16.50
2023-04-15T08:50:16.847Z,34.80
2023-04-15T08:51:16.867Z,25.70
2023-04-15T08:52:17.768Z,16.10
2023-04-15T08:53:16.849Z,17.40
2023-04-15T08:54:16.819Z,15.20
2023-04-15T08:55:16.815Z,17.30
2023-04-15T08:56:17.031Z,15.10
2023-04-15T08:57:16.798Z,14.40
2023-04-15T08:58:17.711Z,15.40
2023-04-15T08:59:16.740Z,14.80
2023-04-15T09:00:16.741Z,14.60
2023-04-15T09:01:16.751Z,14.40
2023-04-15T09:02:16.725Z,15.40
2023-04-15T09:03:16.789Z,27.40
2023-04-15T09:04:17.641Z,17.00
2023-04-15T09:05:16.682Z,17.50
2023-04-15T09:06:16.788Z,14.40
2023-04-15T09:07:16.667Z,15.10
2023-04-15T09:08:16.665Z,17.60
2023-04-15T09:09:16.630Z,14.90
2023-04-15T09:10:17.551Z,16.40
2023-04-15T09:11:17.400Z,14.50
2023-04-15T09:12:16.580Z,16.00
2023-04-15T09:13:16.611Z,15.50
2023-04-15T09:14:16.544Z,15.90
2023-04-15T09:15:16.543Z,15.20
2023-04-15T09:16:17.534Z,16.80
2023-04-15T09:17:16.508Z,15.20
2023-04-15T09:18:16.503Z,15.80
2023-04-15T09:19:16.476Z,15.00
2023-04-15T09:20:16.500Z,15.30
2023-04-15T09:21:16.504Z,13.80
2023-04-15T09:22:17.366Z,14.10
2023-04-15T09:23:16.442Z,13.70
2023-04-15T09:24:16.427Z,15.90
2023-04-15T09:25:16.408Z,14.80
2023-04-15T09:26:16.406Z,15.20
2023-04-15T09:27:17.446Z,16.40
2023-04-15T09:28:16.678Z,15.10
2023-04-15T09:29:16.377Z,13.90
2023-04-15T09:30:16.374Z,15.20
2023-04-15T09:31:16.393Z,14.70
2023-04-15T09:32:16.336Z,20.40
2023-04-15T09:33:17.284Z,14.50
2023-04-15T09:34:16.284Z,15.70
2023-04-15T09:35:16.271Z,14.50
2023-04-15T09:36:16.278Z,14.70
2023-04-15T09:37:31.294Z,13.80
2023-04-15T09:38:17.755Z,16.00
2023-04-15T09:39:17.151Z,15.20
2023-04-15T09:40:16.205Z,15.50
2023-04-15T09:41:16.301Z,14.60
2023-04-15T09:42:16.189Z,14.90
2023-04-15T09:43:16.166Z,14.90
2023-04-15T09:44:17.094Z,15.30
2023-04-15T09:45:16.172Z,15.20
2023-04-15T09:46:16.194Z,15.30
2023-04-15T09:47:16.130Z,14.40
2023-04-15T09:48:16.103Z,15.50
2023-04-15T09:49:17.044Z,14.70
2023-04-15T09:50:16.092Z,13.70
2023-04-15T09:51:16.097Z,15.30
2023-04-15T09:52:16.058Z,15.20
2023-04-15T09:53:16.021Z,14.70
2023-04-15T09:54:17.024Z,14.40
2023-04-15T09:55:16.287Z,14.50
2023-04-15T09:56:16.003Z,18.20
2023-04-15T09:57:16.214Z,15.10
2023-04-15T09:58:16.058Z,18.50
2023-04-15T09:59:16.013Z,16.60
2023-04-15T10:00:16.921Z,16.70
2023-04-15T10:01:15.942Z,19.50
2023-04-15T10:02:15.998Z,16.10
2023-04-15T10:03:16.069Z,14.40
2023-04-15T10:04:16.018Z,16.10
2023-04-15T10:05:15.888Z,14.10
2023-04-15T10:06:16.815Z,16.40
2023-04-15T10:07:15.891Z,14.80
2023-04-15T10:08:15.865Z,14.30
2023-04-15T10:09:15.852Z,15.70
2023-04-15T10:10:15.907Z,14.10
2023-04-15T10:11:15.838Z,14.00
2023-04-15T10:12:16.750Z,14.40
2023-04-15T10:13:15.826Z,14.80
2023-04-15T10:14:15.787Z,15.20
2023-04-15T10:15:15.759Z,16.00
2023-04-15T10:16:15.774Z,14.80
2023-04-15T10:17:15.735Z,15.70
2023-04-15T10:18:16.683Z,15.60
2023-04-15T10:19:15.738Z,15.10
2023-04-15T10:20:15.745Z,14.20
2023-04-15T10:21:15.694Z,15.40
2023-04-15T10:22:15.697Z,14.40
2023-04-15T10:23:15.681Z,15.00
2023-04-15T10:24:16.572Z,16.20
2023-04-15T10:25:15.665Z,14.60
2023-04-15T10:26:15.642Z,15.20
2023-04-15T10:27:15.635Z,14.20
2023-04-15T10:28:15.639Z,16.90
2023-04-15T10:29:15.588Z,16.30
2023-04-15T10:30:16.496Z,16.20
2023-04-15T10:31:15.617Z,14.70
2023-04-15T10:32:15.551Z,15.50
2023-04-15T10:33:15.556Z,14.80
2023-04-15T10:34:15.634Z,15.80
2023-04-15T10:35:15.529Z,14.70
2023-04-15T10:36:16.425Z,16.70
2023-04-15T10:37:15.526Z,15.50
2023-04-15T10:38:15.493Z,16.70
2023-04-15T10:39:15.567Z,16.00
2023-04-15T10:40:15.425Z,14.80
2023-04-15T10:41:17.067Z,14.90
2023-04-15T10:42:16.385Z,15.40
2023-04-15T10:43:15.409Z,15.20
2023-04-15T10:44:15.379Z,16.30
2023-04-15T10:45:15.393Z,15.30
2023-04-15T10:46:15.370Z,16.10
2023-04-15T10:47:15.364Z,15.40
2023-04-15T10:48:16.293Z,15.50
2023-04-15T10:49:15.360Z,14.70
2023-04-15T10:50:15.362Z,15.00
2023-04-15T10:51:15.336Z,14.70
2023-04-15T10:52:15.291Z,16.10
2023-04-15T10:53:16.212Z,15.30
2023-04-15T10:54:15.310Z,15.30
2023-04-15T10:55:15.246Z,15.10
2023-04-15T10:56:15.279Z,15.40
2023-04-15T10:57:15.237Z,14.80
2023-04-15T10:58:16.138Z,16.10
2023-04-15T10:59:15.197Z,16.40
2023-04-15T11:00:15.217Z,15.50
2023-04-15T11:01:15.177Z,14.70
2023-04-15T11:02:15.279Z,15.20
2023-04-15T11:03:15.237Z,14.80
2023-04-15T11:04:16.187Z,13.40
2023-04-15T11:05:15.151Z,16.40
2023-04-15T11:06:16.166Z,14.10
2023-04-15T11:07:15.122Z,13.90
2023-04-15T11:08:15.101Z,14.00
2023-04-15T11:09:16.003Z,14.90
2023-04-15T11:10:15.064Z,14.30
2023-04-15T11:11:15.051Z,14.60
2023-04-15T11:12:15.026Z,13.80
2023-04-15T11:13:15.034Z,12.80
2023-04-15T11:14:15.949Z,12.90
2023-04-15T11:15:15.034Z,14.10
2023-04-15T11:16:15.041Z,12.80
2023-04-15T11:17:14.986Z,14.00
2023-04-15T11:18:15.004Z,14.50
2023-04-15T11:19:15.905Z,15.20
2023-04-15T11:20:14.940Z,14.40
2023-04-15T11:21:15.169Z,14.90
2023-04-15T11:22:14.910Z,15.30
2023-04-15T11:23:15.730Z,14.70
2023-04-15T11:24:14.903Z,14.90
2023-04-15T11:25:15.791Z,17.10
2023-04-15T11:26:14.866Z,15.80
2023-04-15T11:27:14.869Z,15.20
2023-04-15T11:28:14.856Z,16.10
2023-04-15T11:29:14.831Z,16.50
2023-04-15T11:30:15.728Z,18.10
2023-04-15T11:31:14.819Z,14.50
2023-04-15T11:32:14.828Z,18.80
2023-04-15T11:33:14.787Z,15.30
2023-04-15T11:34:14.762Z,14.90
2023-04-15T11:35:15.678Z,13.90
2023-04-15T11:36:14.772Z,16.60
2023-04-15T11:37:14.712Z,14.60
2023-04-15T11:38:14.719Z,14.70
2023-04-15T11:39:14.699Z,18.10
2023-04-15T11:40:15.593Z,18.10
2023-04-15T11:41:14.660Z,18.50
2023-04-15T11:42:14.657Z,16.10
2023-04-15T11:43:14.647Z,14.50
2023-04-15T11:44:14.635Z,17.80
2023-04-15T11:45:15.536Z,14.20
2023-04-15T11:46:14.665Z,14.90
2023-04-15T11:47:14.592Z,15.30
2023-04-15T11:48:14.619Z,15.50
2023-04-15T11:49:14.563Z,18.80
2023-04-15T11:50:14.544Z,16.30
2023-04-15T11:51:15.491Z,15.00
2023-04-15T11:52:14.495Z,15.20
2023-04-15T11:53:14.493Z,16.20
2023-04-15T11:54:14.498Z,15.50
2023-04-15T11:55:14.513Z,18.00
2023-04-15T11:57:12.897Z,15.70
2023-04-15T11:58:14.430Z,15.00
2023-04-15T11:59:12.854Z,15.50
2023-04-15T12:00:12.801Z,14.70
2023-04-15T12:01:12.892Z,14.10
2023-04-15T12:02:13.869Z,19.30
2023-04-15T12:03:12.938Z,16.10
2023-04-15T12:04:13.027Z,15.70
2023-04-15T12:05:12.800Z,16.10
2023-04-15T12:06:12.762Z,15.00
2023-04-15T12:07:13.727Z,16.00
2023-04-15T12:08:12.788Z,15.30
2023-04-15T12:09:12.756Z,14.40
2023-04-15T12:10:12.723Z,14.80
2023-04-15T12:11:12.767Z,15.50
2023-04-15T12:12:12.702Z,14.10
2023-04-15T12:13:13.684Z,18.30
2023-04-15T12:14:12.692Z,14.60
2023-04-15T12:15:12.730Z,14.50
2023-04-15T12:16:12.676Z,15.30
2023-04-15T12:17:12.680Z,15.40
2023-04-15T12:18:13.566Z,15.70
2023-04-15T12:19:12.612Z,17.80
2023-04-15T12:20:12.623Z,14.00
2023-04-15T12:21:12.562Z,15.70
2023-04-15T12:22:12.581Z,13.20
2023-04-15T12:23:12.578Z,15.40
2023-04-15T12:24:13.502Z,14.10
2023-04-15T12:25:12.524Z,14.80
2023-04-15T12:26:12.549Z,18.90
2023-04-15T12:27:12.497Z,15.00
2023-04-15T12:28:12.531Z,13.40
2023-04-15T12:29:12.472Z,15.90
2023-04-15T12:30:13.396Z,14.30
2023-04-15T12:31:12.457Z,13.30
2023-04-15T12:32:12.509Z,16.00
2023-04-15T12:33:12.417Z,18.50
2023-04-15T12:34:12.552Z,14.40
2023-04-15T12:35:12.431Z,16.20
2023-04-15T12:36:13.374Z,15.20
2023-04-15T12:37:12.434Z,13.30
2023-04-15T12:38:12.338Z,13.40
2023-04-15T12:39:12.326Z,14.80
2023-04-15T12:40:12.308Z,13.90
2023-04-15T12:41:12.358Z,14.00
2023-04-15T12:42:13.295Z,14.30
2023-04-15T12:43:12.349Z,14.90
2023-04-15T12:44:12.309Z,13.30
2023-04-15T12:45:12.302Z,16.00
2023-04-15T12:46:12.404Z,14.00
2023-04-15T12:47:12.263Z,12.30
2023-04-15T12:48:13.268Z,14.30
2023-04-15T12:49:12.316Z,13.40
2023-04-15T12:50:12.326Z,17.20
2023-04-15T12:51:12.332Z,13.90
2023-04-15T12:52:12.180Z,14.60
2023-04-15T12:53:12.145Z,13.00